createdAt,value
2023-04-08T00:00:56.483Z,1016.75
2023-04-08T00:01:56.572Z,1016.75
2023-04-08T00:02:56.590Z,1016.75
2023-04-08T00:03:56.735Z,1016.76
2023-04-08T00:04:56.546Z,1016.76
2023-04-08T00:05:56.460Z,1016.77
2023-04-08T00:06:56.452Z,1016.78
2023-04-08T00:07:56.458Z,1016.77
2023-04-08T00:08:56.473Z,1016.77
2023-04-08T00:09:56.440Z,1016.76
2023-04-08T00:10:56.438Z,1016.81
2023-04-08T00:11:56.432Z,1016.79
2023-04-08T00:12:56.426Z,1016.77
2023-04-08T00:13:56.422Z,1016.82
2023-04-08T00:14:56.419Z,1016.82
2023-04-08T00:15:56.416Z,1016.80
2023-04-08T00:16:56.434Z,1016.77
2023-04-08T00:17:56.510Z,1016.80
2023-04-08T00:18:56.398Z,1016.75
2023-04-08T00:19:56.396Z,1016.76
2023-04-08T00:20:56.388Z,1016.76
2023-04-08T00:21:56.392Z,1016.75
2023-04-08T00:22:56.383Z,1016.78
2023-04-08T00:23:56.380Z,1016.76
2023-04-08T00:24:56.390Z,1016.78
2023-04-08T00:25:56.369Z,1016.74
2023-04-08T00:26:56.369Z,1016.74
2023-04-08T00:27:56.359Z,1016.76
2023-04-08T00:28:56.352Z,1016.78
2023-04-08T00:29:56.350Z,1016.78
2023-04-08T00:30:56.395Z,1016.75
2023-04-08T00:31:56.356Z,1016.80
2023-04-08T00:32:56.406Z,1016.77
2023-04-08T00:33:56.330Z,1016.78
2023-04-08T00:34:56.326Z,1016.77
2023-04-08T00:35:56.338Z,1016.79
2023-04-08T00:36:56.329Z,1016.80
2023-04-08T00:37:56.316Z,1016.82
2023-04-08T00:38:56.310Z,1016.81
2023-04-08T00:39:56.310Z,1016.81
2023-04-08T00:40:56.318Z,1016.81
2023-04-08T00:41:56.327Z,1016.76
2023-04-08T00:42:56.291Z,1016.78
2023-04-08T00:43:56.286Z,1016.77
2023-04-08T00:44:56.289Z,1016.81
2023-04-08T00:45:56.356Z,1016.79
2023-04-08T00:46:56.271Z,1016.79
2023-04-08T00:47:56.293Z,1016.81
2023-04-08T00:48:56.263Z,1016.77
2023-04-08T00:49:56.258Z,1016.78
2023-04-08T00:50:56.255Z,1016.79
2023-04-08T00:51:56.252Z,1016.79
2023-04-08T00:52:56.242Z,1016.82
2023-04-08T00:53:56.238Z,1016.82
2023-04-08T00:54:56.232Z,1016.80
2023-04-08T00:55:56.233Z,1016.84
2023-04-08T00:56:56.251Z,1016.86
2023-04-08T00:57:56.225Z,1016.83
2023-04-08T00:58:56.229Z,1016.84
2023-04-08T00:59:56.219Z,1016.83
2023-04-08T01:00:56.207Z,1016.86
2023-04-08T01:01:56.270Z,1016.92
2023-04-08T01:02:56.319Z,1016.87
2023-04-08T01:03:56.408Z,1016.86
2023-04-08T01:04:56.189Z,1016.89
2023-04-08T01:05:56.191Z,1016.93
2023-04-08T01:06:56.181Z,1016.93
2023-04-08T01:07:56.183Z,1016.93
2023-04-08T01:08:56.171Z,1016.93
2023-04-08T01:09:56.168Z,1016.91
2023-04-08T01:10:56.168Z,1016.93
2023-04-08T01:11:56.158Z,1016.91
2023-04-08T01:12:56.179Z,1016.91
2023-04-08T01:13:56.150Z,1016.91
2023-04-08T01:14:56.148Z,1016.94
2023-04-08T01:15:56.164Z,1016.95
2023-04-08T01:16:56.136Z,1016.92
2023-04-08T01:17:56.203Z,1016.91
2023-04-08T01:18:56.127Z,1016.93
2023-04-08T01:19:56.121Z,1016.94
2023-04-08T01:20:56.116Z,1016.90
2023-04-08T01:21:56.115Z,1016.96
2023-04-08T01:22:56.111Z,1016.97
2023-04-08T01:23:56.106Z,1016.96
2023-04-08T01:24:56.103Z,1016.97
2023-04-08T01:25:56.109Z,1016.91
2023-04-08T01:26:56.096Z,1016.96
2023-04-08T01:27:56.087Z,1016.95
2023-04-08T01:28:56.102Z,1016.97
2023-04-08T01:29:56.082Z,1016.99
2023-04-08T01:30:56.084Z,1016.97
2023-04-08T01:31:56.075Z,1017.01
2023-04-08T01:32:56.140Z,1017.04
2023-04-08T01:33:56.061Z,1017.00
2023-04-08T01:34:56.054Z,1017.04
2023-04-08T01:35:56.545Z,1017.04
2023-04-08T01:36:57.962Z,1016.98
2023-04-08T01:37:56.047Z,1017.00
2023-04-08T01:38:56.042Z,1017.02
2023-04-08T01:39:56.038Z,1017.02
2023-04-08T01:40:56.034Z,1017.00
2023-04-08T01:41:56.031Z,1017.02
2023-04-08T01:42:56.023Z,1017.00
2023-04-08T01:43:56.017Z,1016.99
2023-04-08T01:44:56.036Z,1016.98
2023-04-08T01:45:56.013Z,1017.04
2023-04-08T01:46:56.074Z,1017.02
2023-04-08T01:47:56.041Z,1016.99
2023-04-08T01:48:56.000Z,1016.98
2023-04-08T01:49:55.988Z,1017.00
2023-04-08T01:50:55.992Z,1017.02
2023-04-08T01:51:55.986Z,1017.03
2023-04-08T01:52:55.996Z,1016.99
2023-04-08T01:53:55.974Z,1016.99
2023-04-08T01:54:55.978Z,1016.99
2023-04-08T01:55:55.965Z,1017.01
2023-04-08T01:56:55.967Z,1017.00
2023-04-08T01:57:55.965Z,1016.99
2023-04-08T01:58:55.952Z,1017.03
2023-04-08T01:59:55.956Z,1017.00
2023-04-08T02:00:55.968Z,1017.04
2023-04-08T02:01:56.027Z,1017.00
2023-04-08T02:02:56.214Z,1017.02
2023-04-08T02:03:56.017Z,1017.01
2023-04-08T02:04:55.932Z,1017.00
2023-04-08T02:05:55.920Z,1017.01
2023-04-08T02:06:55.919Z,1017.01
2023-04-08T02:07:55.915Z,1017.03
2023-04-08T02:08:55.908Z,1017.07
2023-04-08T02:09:55.902Z,1017.04
2023-04-08T02:10:55.903Z,1017.03
2023-04-08T02:11:55.893Z,1017.01
2023-04-08T02:12:55.895Z,1017.04
2023-04-08T02:13:55.883Z,1017.03
2023-04-08T02:14:55.880Z,1017.02
2023-04-08T02:15:55.898Z,1017.04
2023-04-08T02:16:55.898Z,1016.99
2023-04-08T02:17:56.071Z,1017.00
2023-04-08T02:18:55.869Z,1017.06
2023-04-08T02:19:55.859Z,1017.06
2023-04-08T02:20:55.861Z,1017.07
2023-04-08T02:21:55.848Z,1017.06
2023-04-08T02:22:55.843Z,1017.03
2023-04-08T02:23:55.841Z,1017.03
2023-04-08T02:24:55.852Z,1017.08
2023-04-08T02:25:55.845Z,1017.03
2023-04-08T02:26:55.839Z,1017.02
2023-04-08T02:27:55.820Z,1017.03
2023-04-08T02:28:55.819Z,1017.02
2023-04-08T02:29:55.811Z,1017.01
2023-04-08T02:30:55.825Z,1017.03
2023-04-08T02:31:55.931Z,1017.05
2023-04-08T02:32:55.939Z,1017.05
2023-04-08T02:33:55.798Z,1017.02
2023-04-08T02:34:55.796Z,1017.04
2023-04-08T02:35:55.824Z,1017.05
2023-04-08T02:36:55.783Z,1017.04
2023-04-08T02:37:55.775Z,1017.01
2023-04-08T02:38:55.775Z,1017.05
2023-04-08T02:39:55.772Z,1017.05
2023-04-08T02:40:55.765Z,1017.09
2023-04-08T02:41:55.766Z,1017.08
2023-04-08T02:42:55.756Z,1017.05
2023-04-08T02:43:55.755Z,1017.06
2023-04-08T02:44:55.751Z,1017.04
2023-04-08T02:45:55.827Z,1017.04
2023-04-08T02:46:55.745Z,1017.08
2023-04-08T02:47:55.781Z,1017.03
2023-04-08T02:48:55.760Z,1017.08
2023-04-08T02:49:55.722Z,1017.09
2023-04-08T02:50:55.732Z,1017.06
2023-04-08T02:51:55.727Z,1017.07
2023-04-08T02:52:55.713Z,1017.10
2023-04-08T02:53:55.707Z,1017.10
2023-04-08T02:54:55.706Z,1017.08
2023-04-08T02:55:55.695Z,1017.13
2023-04-08T02:56:55.697Z,1017.14
2023-04-08T02:57:55.699Z,1017.15
2023-04-08T02:58:55.683Z,1017.15
2023-04-08T02:59:55.688Z,1017.16
2023-04-08T03:00:55.705Z,1017.16
2023-04-08T03:01:55.719Z,1017.14
2023-04-08T03:02:55.807Z,1017.19
2023-04-08T03:03:55.720Z,1017.21
2023-04-08T03:04:55.678Z,1017.20
2023-04-08T03:05:55.654Z,1017.21
2023-04-08T03:06:55.653Z,1017.19
2023-04-08T03:07:55.644Z,1017.22
2023-04-08T03:08:55.638Z,1017.23
2023-04-08T03:09:55.732Z,1017.22
2023-04-08T03:10:55.640Z,1017.24
2023-04-08T03:11:55.623Z,1017.24
2023-04-08T03:12:55.624Z,1017.21
2023-04-08T03:13:55.618Z,1017.24
2023-04-08T03:14:55.611Z,1017.22
2023-04-08T03:15:55.607Z,1017.23
2023-04-08T03:16:55.705Z,1017.23
2023-04-08T03:17:55.670Z,1017.24
2023-04-08T03:18:55.596Z,1017.23
2023-04-08T03:19:55.592Z,1017.25
2023-04-08T03:20:55.608Z,1017.24
2023-04-08T03:21:55.580Z,1017.22
2023-04-08T03:22:55.579Z,1017.21
2023-04-08T03:23:55.572Z,1017.22
2023-04-08T03:24:55.568Z,1017.18
2023-04-08T03:25:55.563Z,1017.22
2023-04-08T03:26:55.567Z,1017.22
2023-04-08T03:27:55.553Z,1017.22
2023-04-08T03:28:55.552Z,1017.24
2023-04-08T03:29:55.544Z,1017.23
2023-04-08T03:30:55.560Z,1017.23
2023-04-08T03:31:55.602Z,1017.23
2023-04-08T03:32:55.577Z,1017.22
2023-04-08T03:33:55.527Z,1017.22
2023-04-08T03:34:55.525Z,1017.22
2023-04-08T03:35:55.601Z,1017.24
2023-04-08T03:36:55.606Z,1017.21
2023-04-08T03:37:55.513Z,1017.24
2023-04-08T03:38:55.513Z,1017.23
2023-04-08T03:39:55.505Z,1017.27
2023-04-08T03:40:55.700Z,1017.28
2023-04-08T03:41:55.492Z,1017.28
2023-04-08T03:42:55.489Z,1017.26
2023-04-08T03:43:55.487Z,1017.28
2023-04-08T03:44:55.486Z,1017.29
2023-04-08T03:45:55.535Z,1017.30
2023-04-08T03:46:55.472Z,1017.30
2023-04-08T03:47:55.516Z,1017.29
2023-04-08T03:48:55.463Z,1017.32
2023-04-08T03:49:55.480Z,1017.29
2023-04-08T03:50:55.469Z,1017.32
2023-04-08T03:51:55.459Z,1017.29
2023-04-08T03:52:55.476Z,1017.28
2023-04-08T03:53:55.452Z,1017.26
2023-04-08T03:54:55.434Z,1017.29
2023-04-08T03:55:55.429Z,1017.29
2023-04-08T03:56:55.428Z,1017.33
2023-04-08T03:57:55.419Z,1017.34
2023-04-08T03:58:55.428Z,1017.32
2023-04-08T03:59:55.411Z,1017.32
2023-04-08T04:00:55.421Z,1017.30
2023-04-08T04:01:55.482Z,1017.30
2023-04-08T04:02:55.509Z,1017.26
2023-04-08T04:03:55.574Z,1017.27
2023-04-08T04:04:55.450Z,1017.25
2023-04-08T04:05:55.384Z,1017.24
2023-04-08T04:06:55.381Z,1017.25
2023-04-08T04:07:55.393Z,1017.24
2023-04-08T04:08:55.403Z,1017.24
2023-04-08T04:09:55.364Z,1017.28
2023-04-08T04:10:55.366Z,1017.26
2023-04-08T04:11:55.358Z,1017.27
2023-04-08T04:12:55.357Z,1017.32
2023-04-08T04:13:55.346Z,1017.36
2023-04-08T04:14:55.347Z,1017.31
2023-04-08T04:15:55.416Z,1017.32
2023-04-08T04:16:55.340Z,1017.32
2023-04-08T04:17:55.405Z,1017.35
2023-04-08T04:18:55.402Z,1017.34
2023-04-08T04:19:55.321Z,1017.33
2023-04-08T04:20:55.321Z,1017.36
2023-04-08T04:21:55.310Z,1017.32
2023-04-08T04:22:55.310Z,1017.36
2023-04-08T04:23:55.315Z,1017.41
2023-04-08T04:24:55.316Z,1017.44
2023-04-08T04:25:55.297Z,1017.42
2023-04-08T04:26:55.288Z,1017.43
2023-04-08T04:27:55.292Z,1017.43
2023-04-08T04:28:55.282Z,1017.44
2023-04-08T04:29:55.274Z,1017.45
2023-04-08T04:30:56.626Z,1017.47
2023-04-08T04:31:55.270Z,1017.47
2023-04-08T04:32:55.294Z,1017.50
2023-04-08T04:33:55.284Z,1017.52
2023-04-08T04:34:55.250Z,1017.55
2023-04-08T04:35:55.275Z,1017.56
2023-04-08T04:36:55.243Z,1017.59
2023-04-08T04:37:55.237Z,1017.58
2023-04-08T04:38:55.560Z,1017.62
2023-04-08T04:39:55.227Z,1017.60
2023-04-08T04:40:55.645Z,1017.59
2023-04-08T04:41:55.222Z,1017.63
2023-04-08T04:42:55.225Z,1017.64
2023-04-08T04:43:55.209Z,1017.67
2023-04-08T04:44:55.206Z,1017.64
2023-04-08T04:45:55.197Z,1017.68
2023-04-08T04:46:55.220Z,1017.68
2023-04-08T04:47:55.224Z,1017.68
2023-04-08T04:48:55.186Z,1017.67
2023-04-08T04:49:55.179Z,1017.67
2023-04-08T04:50:55.176Z,1017.69
2023-04-08T04:51:55.172Z,1017.72
2023-04-08T04:52:55.166Z,1017.71
2023-04-08T04:53:55.162Z,1017.72
2023-04-08T04:54:55.158Z,1017.68
2023-04-08T04:55:55.150Z,1017.71
2023-04-08T04:56:55.169Z,1017.68
2023-04-08T04:57:55.143Z,1017.70
2023-04-08T04:58:55.146Z,1017.65
2023-04-08T04:59:55.184Z,1017.69
2023-04-08T05:00:55.141Z,1017.70
2023-04-08T05:01:55.182Z,1017.65
2023-04-08T05:02:55.211Z,1017.62
2023-04-08T05:03:55.123Z,1017.64
2023-04-08T05:04:55.192Z,1017.58
2023-04-08T05:05:55.121Z,1017.62
2023-04-08T05:06:55.108Z,1017.63
2023-04-08T05:07:55.099Z,1017.63
2023-04-08T05:08:55.101Z,1017.68
2023-04-08T05:09:55.089Z,1017.67
2023-04-08T05:10:55.087Z,1017.67
2023-04-08T05:11:55.101Z,1017.70
2023-04-08T05:12:55.115Z,1017.71
2023-04-08T05:13:55.087Z,1017.74
2023-04-08T05:14:55.078Z,1017.71
2023-04-08T05:15:55.119Z,1017.70
2023-04-08T05:16:55.071Z,1017.75
2023-04-08T05:17:55.115Z,1017.74
2023-04-08T05:18:55.057Z,1017.76
2023-04-08T05:19:55.054Z,1017.76
2023-04-08T05:20:55.048Z,1017.81
2023-04-08T05:21:55.041Z,1017.80
2023-04-08T05:22:55.041Z,1017.80
2023-04-08T05:23:55.061Z,1017.83
2023-04-08T05:24:55.031Z,1017.84
2023-04-08T05:25:55.024Z,1017.87
2023-04-08T05:26:55.022Z,1017.90
2023-04-08T05:27:55.021Z,1017.95
2023-04-08T05:28:55.033Z,1017.92
2023-04-08T05:29:55.019Z,1017.91
2023-04-08T05:30:55.006Z,1017.94
2023-04-08T05:31:55.037Z,1017.96
2023-04-08T05:32:55.599Z,1017.99
2023-04-08T05:33:55.010Z,1017.94
2023-04-08T05:34:54.985Z,1017.93
2023-04-08T05:35:55.030Z,1017.92
2023-04-08T05:36:54.978Z,1017.95
2023-04-08T05:37:54.970Z,1017.95
2023-04-08T05:38:54.977Z,1017.96
2023-04-08T05:39:54.978Z,1017.94
2023-04-08T05:40:54.956Z,1018.00
2023-04-08T05:41:54.955Z,1018.03
2023-04-08T05:42:54.946Z,1018.04
2023-04-08T05:43:54.946Z,1018.04
2023-04-08T05:44:55.052Z,1018.06
2023-04-08T05:45:54.930Z,1018.07
2023-04-08T05:46:54.954Z,1018.08
2023-04-08T05:47:54.948Z,1018.07
2023-04-08T05:48:54.918Z,1018.09
2023-04-08T05:49:54.913Z,1018.09
2023-04-08T05:50:54.906Z,1018.10
2023-04-08T05:51:54.904Z,1018.08
2023-04-08T05:52:54.899Z,1018.13
2023-04-08T05:53:54.901Z,1018.15
2023-04-08T05:54:54.889Z,1018.16
2023-04-08T05:55:54.888Z,1018.19
2023-04-08T05:56:54.876Z,1018.23
2023-04-08T05:57:54.889Z,1018.21
2023-04-08T05:58:54.868Z,1018.22
2023-04-08T05:59:54.879Z,1018.22
2023-04-08T06:00:54.879Z,1018.21
2023-04-08T06:01:54.927Z,1018.26
2023-04-08T06:02:55.075Z,1018.24
2023-04-08T06:03:54.977Z,1018.24
2023-04-08T06:04:54.875Z,1018.28
2023-04-08T06:05:54.832Z,1018.28
2023-04-08T06:06:54.824Z,1018.30
2023-04-08T06:07:54.825Z,1018.30
2023-04-08T06:08:54.816Z,1018.30
2023-04-08T06:09:54.813Z,1018.28
2023-04-08T06:10:54.809Z,1018.31
2023-04-08T06:11:54.801Z,1018.31
2023-04-08T06:12:54.794Z,1018.28
2023-04-08T06:13:54.801Z,1018.32
2023-04-08T06:14:54.785Z,1018.31
2023-04-08T06:15:54.784Z,1018.33
2023-04-08T06:16:54.865Z,1018.32
2023-04-08T06:17:54.803Z,1018.32
2023-04-08T06:18:54.765Z,1018.32
2023-04-08T06:19:54.764Z,1018.35
2023-04-08T06:20:54.757Z,1018.36
2023-04-08T06:21:54.752Z,1018.38
2023-04-08T06:22:54.749Z,1018.44
2023-04-08T06:23:54.744Z,1018.41
2023-04-08T06:24:54.738Z,1018.42
2023-04-08T06:25:54.734Z,1018.44
2023-04-08T06:26:54.732Z,1018.45
2023-04-08T06:27:54.724Z,1018.45
2023-04-08T06:28:54.718Z,1018.46
2023-04-08T06:29:54.716Z,1018.46
2023-04-08T06:30:54.710Z,1018.45
2023-04-08T06:31:54.755Z,1018.45
2023-04-08T06:32:54.817Z,1018.46
2023-04-08T06:33:54.697Z,1018.49
2023-04-08T06:34:54.692Z,1018.49
2023-04-08T06:35:54.715Z,1018.51
2023-04-08T06:36:54.690Z,1018.49
2023-04-08T06:37:54.691Z,1018.50
2023-04-08T06:38:54.679Z,1018.49
2023-04-08T06:39:54.833Z,1018.49
2023-04-08T06:40:54.668Z,1018.53
2023-04-08T06:41:54.665Z,1018.56
2023-04-08T06:42:54.664Z,1018.50
2023-04-08T06:43:54.657Z,1018.53
2023-04-08T06:44:54.649Z,1018.54
2023-04-08T06:45:54.662Z,1018.53
2023-04-08T06:46:54.644Z,1018.58
2023-04-08T06:47:54.695Z,1018.59
2023-04-08T06:48:54.657Z,1018.61
2023-04-08T06:49:54.629Z,1018.62
2023-04-08T06:50:54.616Z,1018.60
2023-04-08T06:51:54.615Z,1018.58
2023-04-08T06:52:54.605Z,1018.60
2023-04-08T06:53:54.601Z,1018.61
2023-04-08T06:54:54.600Z,1018.60
2023-04-08T06:55:54.596Z,1018.63
2023-04-08T06:56:54.587Z,1018.62
2023-04-08T06:57:54.584Z,1018.61
2023-04-08T06:58:54.588Z,1018.64
2023-04-08T06:59:54.573Z,1018.66
2023-04-08T07:00:54.586Z,1018.68
2023-04-08T07:01:54.717Z,1018.71
2023-04-08T07:02:54.653Z,1018.67
2023-04-08T07:03:54.616Z,1018.68
2023-04-08T07:04:54.572Z,1018.69
2023-04-08T07:05:54.769Z,1018.66
2023-04-08T07:06:54.543Z,1018.69
2023-04-08T07:07:54.535Z,1018.66
2023-04-08T07:08:54.527Z,1018.69
2023-04-08T07:09:54.528Z,1018.66
2023-04-08T07:10:54.523Z,1018.73
2023-04-08T07:11:54.521Z,1018.69
2023-04-08T07:12:54.516Z,1018.73
2023-04-08T07:13:54.518Z,1018.73
2023-04-08T07:14:54.499Z,1018.75
2023-04-08T07:15:54.497Z,1018.77
2023-04-08T07:16:54.598Z,1018.77
2023-04-08T07:17:54.504Z,1018.75
2023-04-08T07:18:54.484Z,1018.77
2023-04-08T07:19:54.477Z,1018.80
2023-04-08T07:20:54.590Z,1018.80
2023-04-08T07:21:54.462Z,1018.81
2023-04-08T07:22:54.463Z,1018.80
2023-04-08T07:23:54.457Z,1018.78
2023-04-08T07:24:54.454Z,1018.80
2023-04-08T07:25:54.447Z,1018.81
2023-04-08T07:26:54.441Z,1018.83
2023-04-08T07:27:54.443Z,1018.81
2023-04-08T07:28:54.433Z,1018.82
2023-04-08T07:29:54.428Z,1018.84
2023-04-08T07:30:54.433Z,1018.88
2023-04-08T07:31:54.416Z,1018.87
2023-04-08T07:32:54.444Z,1018.90
2023-04-08T07:33:54.409Z,1018.91
2023-04-08T07:34:54.404Z,1018.91
2023-04-08T07:35:54.543Z,1018.91
2023-04-08T07:36:54.424Z,1018.96
2023-04-08T07:37:54.387Z,1018.95
2023-04-08T07:38:54.378Z,1018.94
2023-04-08T07:39:54.395Z,1018.96
2023-04-08T07:40:54.379Z,1018.97
2023-04-08T07:41:54.366Z,1018.95
2023-04-08T07:42:54.369Z,1018.94
2023-04-08T07:43:54.364Z,1018.99
2023-04-08T07:44:54.350Z,1018.96
2023-04-08T07:45:54.826Z,1019.00
2023-04-08T07:46:54.346Z,1018.98
2023-04-08T07:47:54.404Z,1019.03
2023-04-08T07:48:54.346Z,1019.02
2023-04-08T07:49:54.422Z,1019.08
2023-04-08T07:51:08.815Z,1019.11
2023-04-08T07:51:54.314Z,1019.08
2023-04-08T07:52:54.349Z,1019.12
2023-04-08T07:53:54.313Z,1019.09
2023-04-08T07:54:54.314Z,1019.09
2023-04-08T07:55:54.343Z,1019.11
2023-04-08T07:56:54.289Z,1019.12
2023-04-08T07:57:54.294Z,1019.15
2023-04-08T07:58:54.575Z,1019.15
2023-04-08T07:59:54.291Z,1019.19
2023-04-08T08:00:54.279Z,1019.17
2023-04-08T08:01:54.379Z,1019.16
2023-04-08T08:02:54.310Z,1019.21
2023-04-08T08:03:54.747Z,1019.24
2023-04-08T08:04:54.270Z,1019.20
2023-04-08T08:05:54.249Z,1019.21
2023-04-08T08:06:54.243Z,1019.18
2023-04-08T08:07:54.234Z,1019.19
2023-04-08T08:08:54.251Z,1019.23
2023-04-08T08:09:54.229Z,1019.24
2023-04-08T08:10:54.219Z,1019.25
2023-04-08T08:11:54.231Z,1019.25
2023-04-08T08:12:54.216Z,1019.26
2023-04-08T08:13:54.217Z,1019.28
2023-04-08T08:14:54.200Z,1019.25
2023-04-08T08:15:54.230Z,1019.30
2023-04-08T08:16:54.199Z,1019.29
2023-04-08T08:17:54.219Z,1019.30
2023-04-08T08:18:54.187Z,1019.34
2023-04-08T08:19:54.181Z,1019.36
2023-04-08T08:20:54.173Z,1019.36
2023-04-08T08:21:54.165Z,1019.37
2023-04-08T08:22:57.517Z,1019.42
2023-04-08T08:23:54.155Z,1019.41
2023-04-08T08:24:54.174Z,1019.42
2023-04-08T08:25:54.144Z,1019.48
2023-04-08T08:26:54.138Z,1019.46
2023-04-08T08:27:54.135Z,1019.48
2023-04-08T08:28:54.132Z,1019.44
2023-04-08T08:29:54.130Z,1019.47
2023-04-08T08:30:54.154Z,1019.47
2023-04-08T08:31:54.118Z,1019.52
2023-04-08T08:32:54.216Z,1019.52
2023-04-08T08:33:54.106Z,1019.53
2023-04-08T08:34:54.099Z,1019.55
2023-04-08T08:35:54.121Z,1019.55
2023-04-08T08:36:54.099Z,1019.52
2023-04-08T08:37:54.092Z,1019.53
2023-04-08T08:38:54.096Z,1019.53
2023-04-08T08:39:54.075Z,1019.50
2023-04-08T08:40:54.091Z,1019.50
2023-04-08T08:41:54.065Z,1019.50
2023-04-08T08:42:54.078Z,1019.50
2023-04-08T08:43:54.056Z,1019.50
2023-04-08T08:44:54.052Z,1019.47
2023-04-08T08:45:54.044Z,1019.51
2023-04-08T08:46:54.125Z,1019.46
2023-04-08T08:47:54.081Z,1019.47
2023-04-08T08:48:54.026Z,1019.49
2023-04-08T08:49:54.025Z,1019.45
2023-04-08T08:50:54.024Z,1019.46
2023-04-08T08:51:54.016Z,1019.49
2023-04-08T08:52:54.012Z,1019.50
2023-04-08T08:53:54.326Z,1019.52
2023-04-08T08:54:53.999Z,1019.51
2023-04-08T08:56:16.232Z,1019.52
2023-04-08T08:56:54.006Z,1019.53
2023-04-08T08:57:53.991Z,1019.52
2023-04-08T08:58:53.989Z,1019.53
2023-04-08T08:59:53.977Z,1019.53
2023-04-08T09:00:53.968Z,1019.55
2023-04-08T09:01:53.988Z,1019.55
2023-04-08T09:02:54.104Z,1019.57
2023-04-08T09:03:54.348Z,1019.56
2023-04-08T09:04:54.072Z,1019.59
2023-04-08T09:05:53.946Z,1019.60
2023-04-08T09:06:53.934Z,1019.60
2023-04-08T09:07:53.930Z,1019.57
2023-04-08T09:08:53.924Z,1019.57
2023-04-08T09:09:53.921Z,1019.57
2023-04-08T09:10:53.912Z,1019.55
2023-04-08T09:11:53.915Z,1019.58
2023-04-08T09:12:53.931Z,1019.55
2023-04-08T09:13:53.912Z,1019.58
2023-04-08T09:14:53.894Z,1019.57
2023-04-08T09:15:53.914Z,1019.59
2023-04-08T09:16:53.978Z,1019.62
2023-04-08T09:17:53.919Z,1019.65
2023-04-08T09:18:53.873Z,1019.61
2023-04-08T09:19:53.872Z,1019.61
2023-04-08T09:20:53.896Z,1019.62
2023-04-08T09:21:53.863Z,1019.62
2023-04-08T09:22:53.866Z,1019.61
2023-04-08T09:23:54.054Z,1019.63
2023-04-08T09:24:53.846Z,1019.64
2023-04-08T09:25:53.848Z,1019.65
2023-04-08T09:26:54.292Z,1019.67
2023-04-08T09:27:53.831Z,1019.66
2023-04-08T09:28:53.850Z,1019.63
2023-04-08T09:29:53.830Z,1019.63
2023-04-08T09:30:53.827Z,1019.66
2023-04-08T09:31:53.843Z,1019.69
2023-04-08T09:32:53.890Z,1019.69
2023-04-08T09:33:53.807Z,1019.73
2023-04-08T09:34:53.797Z,1019.71
2023-04-08T09:35:53.831Z,1019.74
2023-04-08T09:36:53.793Z,1019.78
2023-04-08T09:37:53.783Z,1019.80
2023-04-08T09:38:53.785Z,1019.76
2023-04-08T09:39:53.775Z,1019.79
2023-04-08T09:40:53.767Z,1019.77
2023-04-08T09:41:53.775Z,1019.77
2023-04-08T09:42:53.755Z,1019.75
2023-04-08T09:43:53.891Z,1019.75
2023-04-08T09:44:53.764Z,1019.77
2023-04-08T09:45:53.781Z,1019.75
2023-04-08T09:46:53.746Z,1019.77
2023-04-08T09:47:53.786Z,1019.80
2023-04-08T09:48:53.727Z,1019.79
2023-04-08T09:49:53.716Z,1019.79
2023-04-08T09:50:53.723Z,1019.80
2023-04-08T09:51:53.715Z,1019.83
2023-04-08T09:52:53.709Z,1019.81
2023-04-08T09:53:53.700Z,1019.79
2023-04-08T09:54:53.702Z,1019.79
2023-04-08T09:55:53.694Z,1019.77
2023-04-08T09:56:53.687Z,1019.81
2023-04-08T09:57:53.686Z,1019.78
2023-04-08T09:58:53.722Z,1019.78
2023-04-08T09:59:53.701Z,1019.78
2023-04-08T10:00:53.722Z,1019.76
2023-04-08T10:01:53.884Z,1019.80
2023-04-08T10:02:53.894Z,1019.77
2023-04-08T10:03:53.946Z,1019.79
2023-04-08T10:04:53.704Z,1019.77
2023-04-08T10:05:53.640Z,1019.79
2023-04-08T10:06:53.645Z,1019.78
2023-04-08T10:07:53.697Z,1019.80
2023-04-08T10:08:53.664Z,1019.76
2023-04-08T10:09:53.665Z,1019.82
2023-04-08T10:10:53.626Z,1019.82
2023-04-08T10:11:53.643Z,1019.84
2023-04-08T10:12:53.612Z,1019.81
2023-04-08T10:13:53.704Z,1019.83
2023-04-08T10:14:53.600Z,1019.84
2023-04-08T10:15:53.595Z,1019.78
2023-04-08T10:16:53.641Z,1019.80
2023-04-08T10:17:53.666Z,1019.82
2023-04-08T10:18:53.583Z,1019.77
2023-04-08T10:19:53.574Z,1019.81
2023-04-08T10:20:53.572Z,1019.79
2023-04-08T10:21:53.563Z,1019.78
2023-04-08T10:22:53.563Z,1019.74
2023-04-08T10:23:53.557Z,1019.79
2023-04-08T10:24:53.555Z,1019.76
2023-04-08T10:25:53.548Z,1019.79
2023-04-08T10:26:53.543Z,1019.77
2023-04-08T10:27:53.537Z,1019.81
2023-04-08T10:28:53.537Z,1019.82
2023-04-08T10:29:53.533Z,1019.82
2023-04-08T10:30:53.529Z,1019.85
2023-04-08T10:31:53.561Z,1019.85
2023-04-08T10:32:53.628Z,1019.84
2023-04-08T10:33:53.512Z,1019.85
2023-04-08T10:34:53.511Z,1019.84
2023-04-08T10:35:53.613Z,1019.86
2023-04-08T10:36:53.497Z,1019.86
2023-04-08T10:37:53.499Z,1019.89
2023-04-08T10:38:53.484Z,1019.84
2023-04-08T10:39:53.476Z,1019.87
2023-04-08T10:40:53.480Z,1019.89
2023-04-08T10:41:53.466Z,1019.87
2023-04-08T10:42:53.462Z,1019.87
2023-04-08T10:43:53.461Z,1019.84
2023-04-08T10:44:53.457Z,1019.84
2023-04-08T10:45:53.477Z,1019.83
2023-04-08T10:46:53.443Z,1019.82
2023-04-08T10:47:53.498Z,1019.81
2023-04-08T10:48:53.460Z,1019.80
2023-04-08T10:49:53.438Z,1019.77
2023-04-08T10:50:53.426Z,1019.81
2023-04-08T10:51:53.432Z,1019.77
2023-04-08T10:52:53.420Z,1019.76
2023-04-08T10:53:53.417Z,1019.77
2023-04-08T10:54:53.412Z,1019.79
2023-04-08T10:55:53.400Z,1019.75
2023-04-08T10:56:53.409Z,1019.78
2023-04-08T10:57:53.390Z,1019.74
2023-04-08T10:58:53.394Z,1019.78
2023-04-08T10:59:53.387Z,1019.77
2023-04-08T11:00:53.396Z,1019.77
2023-04-08T11:01:53.450Z,1019.79
2023-04-08T11:02:53.500Z,1019.76
2023-04-08T11:03:53.876Z,1019.77
2023-04-08T11:04:53.409Z,1019.78
2023-04-08T11:05:53.357Z,1019.77
2023-04-08T11:06:53.354Z,1019.73
2023-04-08T11:07:53.415Z,1019.72
2023-04-08T11:08:53.349Z,1019.71
2023-04-08T11:09:53.338Z,1019.69
2023-04-08T11:10:53.338Z,1019.69
2023-04-08T11:11:53.329Z,1019.68
2023-04-08T11:12:53.329Z,1019.65
2023-04-08T11:13:54.078Z,1019.70
2023-04-08T11:14:53.323Z,1019.69
2023-04-08T11:15:53.399Z,1019.67
2023-04-08T11:16:53.314Z,1019.61
2023-04-08T11:17:53.311Z,1019.67
2023-04-08T11:18:53.302Z,1019.64
2023-04-08T11:19:53.295Z,1019.65
2023-04-08T11:20:53.317Z,1019.63
2023-04-08T11:21:53.294Z,1019.67
2023-04-08T11:22:53.289Z,1019.64
2023-04-08T11:23:54.066Z,1019.63
2023-04-08T11:24:53.277Z,1019.65
2023-04-08T11:25:53.269Z,1019.70
2023-04-08T11:26:53.268Z,1019.68
2023-04-08T11:27:53.266Z,1019.68
2023-04-08T11:28:53.260Z,1019.66
2023-04-08T11:29:53.252Z,1019.69
2023-04-08T11:30:53.292Z,1019.70
2023-04-08T11:31:53.691Z,1019.71
2023-04-08T11:32:53.380Z,1019.72
2023-04-08T11:33:53.471Z,1019.69
2023-04-08T11:34:53.236Z,1019.71
2023-04-08T11:35:53.286Z,1019.67
2023-04-08T11:36:53.269Z,1019.69
2023-04-08T11:37:53.215Z,1019.67
2023-04-08T11:38:53.213Z,1019.66
2023-04-08T11:39:53.203Z,1019.66
2023-04-08T11:40:53.201Z,1019.69
2023-04-08T11:41:53.220Z,1019.68
2023-04-08T11:42:53.209Z,1019.66
2023-04-08T11:43:53.185Z,1019.67
2023-04-08T11:44:53.188Z,1019.65
2023-04-08T11:45:53.179Z,1019.66
2023-04-08T11:46:53.284Z,1019.65
2023-04-08T11:47:53.164Z,1019.68
2023-04-08T11:48:53.164Z,1019.69
2023-04-08T11:49:53.159Z,1019.72
2023-04-08T11:50:53.155Z,1019.65
2023-04-08T11:51:53.149Z,1019.65
2023-04-08T11:52:53.228Z,1019.66
2023-04-08T11:53:55.899Z,1019.67
2023-04-08T11:54:53.146Z,1019.70
2023-04-08T11:55:53.132Z,1019.65
2023-04-08T11:56:53.130Z,1019.68
2023-04-08T11:57:53.120Z,1019.67
2023-04-08T11:58:53.136Z,1019.66
2023-04-08T11:59:53.113Z,1019.67
2023-04-08T12:00:53.119Z,1019.68
2023-04-08T12:01:53.172Z,1019.71
2023-04-08T12:02:53.185Z,1019.66
2023-04-08T12:03:53.314Z,1019.69
2023-04-08T12:04:53.124Z,1019.68
2023-04-08T12:05:53.087Z,1019.69